Time;durP1;ratioP1;P1;durP2;ratioP2;P2;SDS_P1;SDS_P2;PMS_P1;PMS_P2;Temp;Humidity;BMP_temperature;BMP_pressure;BME280_temperature;BME280_humidity;BME280_pressure;Samples;Min_cycle;Max_cycle;Signal;HPM_P1;HPM_P2
2020/12/12 00:02:16;;;;;;;1.58;0.90;;;15.40;56.00;;;;;;5095803;28;20024;-61
2020/12/12 00:04:42;;;;;;;1.17;1.00;;;15.40;56.00;;;;;;5095680;28;20012;-61
2020/12/12 00:07:08;;;;;;;1.20;0.80;;;15.40;56.00;;;;;;5095667;28;20039;-61
2020/12/12 00:09:34;;;;;;;1.38;0.85;;;15.40;56.00;;;;;;5095382;28;20024;-61
2020/12/12 00:12:00;;;;;;;1.45;0.90;;;15.40;56.10;;;;;;5095277;28;20067;-61
2020/12/12 00:14:26;;;;;;;1.02;0.93;;;15.40;56.10;;;;;;5095568;28;20478;-60
2020/12/12 00:16:52;;;;;;;1.13;0.90;;;15.30;56.00;;;;;;5095254;28;20016;-61
2020/12/12 00:19:18;;;;;;;1.48;1.17;;;15.40;56.10;;;;;;5095259;28;20674;-61
2020/12/12 00:21:43;;;;;;;1.63;1.15;;;15.30;56.00;;;;;;5095379;28;20247;-61
2020/12/12 00:24:09;;;;;;;0.98;0.98;;;15.40;56.20;;;;;;5095399;28;20028;-61
2020/12/12 00:26:35;;;;;;;1.60;1.17;;;15.30;56.10;;;;;;5095257;28;20490;-61
2020/12/12 00:29:00;;;;;;;1.45;1.10;;;15.30;56.10;;;;;;5095197;28;20115;-60
2020/12/12 00:31:26;;;;;;;2.38;1.02;;;15.30;56.10;;;;;;5095235;28;20466;-61
2020/12/12 00:33:51;;;;;;;0.85;0.85;;;15.30;56.20;;;;;;5095259;28;20488;-61
2020/12/12 00:36:17;;;;;;;1.20;1.10;;;15.30;56.20;;;;;;5095205;28;20020;-61
2020/12/12 00:38:43;;;;;;;1.50;1.08;;;15.30;56.20;;;;;;5094934;28;20020;-61
2020/12/12 00:41:08;;;;;;;1.30;1.20;;;15.20;56.20;;;;;;5094726;28;20028;-61
2020/12/12 00:43:34;;;;;;;1.10;0.90;;;15.20;56.20;;;;;;5094838;28;20023;-61
2020/12/12 00:46:01;;;;;;;3.55;1.40;;;15.20;56.20;;;;;;5095611;27;20060;-61
2020/12/12 00:48:27;;;;;;;1.23;1.13;;;15.20;56.20;;;;;;5094821;28;20114;-61
2020/12/12 00:50:52;;;;;;;1.05;0.95;;;15.20;56.20;;;;;;5094811;28;20116;-61
2020/12/12 00:53:18;;;;;;;2.22;1.20;;;15.20;56.20;;;;;;5094818;28;20430;-61
2020/12/12 00:55:43;;;;;;;1.60;1.20;;;15.20;56.30;;;;;;5094053;28;20481;-61
2020/12/12 00:58:10;;;;;;;1.30;1.20;;;15.20;56.30;;;;;;5094780;28;20477;-61
2020/12/12 01:00:35;;;;;;;1.75;1.00;;;15.10;56.20;;;;;;5094622;28;20020;-61
2020/12/12 01:03:02;;;;;;;1.30;1.15;;;15.20;56.30;;;;;;5094694;28;20024;-61
2020/12/12 01:05:31;;;;;;;1.17;1.08;;;15.20;56.30;;;;;;5094323;28;20028;-61
2020/12/12 01:07:58;;;;;;;1.60;1.37;;;15.10;56.20;;;;;;5094044;28;20036;-61
2020/12/12 01:10:25;;;;;;;1.30;1.20;;;15.10;56.30;;;;;;5094393;28;20120;-61
2020/12/12 01:12:51;;;;;;;1.00;1.00;;;15.10;56.30;;;;;;5094476;28;20028;-61
2020/12/12 01:15:17;;;;;;;1.10;0.98;;;15.10;56.30;;;;;;5094156;28;20023;-61
2020/12/12 01:17:43;;;;;;;2.40;1.23;;;15.10;56.40;;;;;;5094014;28;20028;-61
2020/12/12 01:20:09;;;;;;;1.98;1.48;;;15.10;56.40;;;;;;5094376;28;20118;-61
2020/12/12 01:22:34;;;;;;;1.45;1.00;;;15.10;56.40;;;;;;5094285;28;20035;-61
2020/12/12 01:25:00;;;;;;;1.58;1.38;;;15.10;56.40;;;;;;5094239;28;20023;-61
2020/12/12 01:27:26;;;;;;;1.00;0.90;;;15.10;56.40;;;;;;5094032;28;20036;-61
2020/12/12 01:29:52;;;;;;;1.67;0.95;;;15.00;56.40;;;;;;5094179;28;20038;-61
2020/12/12 01:32:17;;;;;;;1.50;1.35;;;15.00;56.40;;;;;;5094112;28;20054;-61
2020/12/12 01:34:43;;;;;;;1.38;1.27;;;15.00;56.40;;;;;;5094115;28;20047;-61
2020/12/12 01:37:09;;;;;;;1.35;1.25;;;15.00;56.40;;;;;;5094009;28;20024;-61
2020/12/12 01:39:34;;;;;;;2.03;1.27;;;14.90;56.40;;;;;;5093894;28;20028;-61
2020/12/12 01:42:00;;;;;;;1.50;1.40;;;15.00;56.50;;;;;;5093966;28;20016;-61
2020/12/12 01:44:25;;;;;;;2.13;1.10;;;14.90;56.40;;;;;;5094767;27;20563;-61
2020/12/12 01:46:52;;;;;;;1.60;1.30;;;15.00;56.50;;;;;;5093561;28;20024;-61
2020/12/12 01:49:18;;;;;;;1.33;1.20;;;14.90;56.50;;;;;;5093580;28;20032;-61
2020/12/12 01:51:44;;;;;;;1.77;1.20;;;14.90;56.50;;;;;;5093820;28;20371;-61
2020/12/12 01:54:10;;;;;;;1.13;1.02;;;14.90;56.70;;;;;;5093693;28;20032;-61
2020/12/12 01:56:37;;;;;;;1.30;1.20;;;14.90;56.50;;;;;;5093741;28;20424;-61
2020/12/12 01:59:03;;;;;;;1.33;1.00;;;14.90;56.50;;;;;;5075009;28;20028;-61
2020/12/12 02:01:33;;;;;;;2.55;1.02;;;14.90;56.60;;;;;;5093526;28;20024;-61
2020/12/12 02:04:00;;;;;;;1.70;1.10;;;14.90;56.60;;;;;;5093130;28;20500;-61
2020/12/12 02:06:26;;;;;;;1.15;1.10;;;14.90;56.60;;;;;;5093500;28;20126;-61
2020/12/12 02:08:52;;;;;;;1.27;1.17;;;14.90;56.60;;;;;;5093512;28;20506;-61
2020/12/12 02:11:19;;;;;;;1.20;1.10;;;14.90;56.60;;;;;;5093304;28;20023;-61
2020/12/12 02:13:46;;;;;;;1.02;1.02;;;14.90;56.70;;;;;;5093374;28;20024;-61
2020/12/12 02:16:23;;;;;;;1.00;1.00;;;14.90;56.70;;;;;;5093384;28;20030;-60
2020/12/12 02:18:48;;;;;;;2.58;1.23;;;14.80;56.60;;;;;;5093036;28;20074;-61
2020/12/12 02:21:21;;;;;;;1.90;1.38;;;14.80;56.70;;;;;;5092958;28;20024;-61
2020/12/12 02:23:46;;;;;;;1.35;1.20;;;14.80;56.70;;;;;;5092998;28;20081;-61
2020/12/12 02:26:12;;;;;;;1.17;1.00;;;14.80;56.70;;;;;;5093155;28;20024;-61
2020/12/12 02:31:08;;;;;;;1.33;1.23;;;14.80;56.70;;;;;;5093060;28;20058;-61
2020/12/12 02:33:34;;;;;;;1.15;1.05;;;14.80;56.80;;;;;;5092916;28;20043;-61
2020/12/12 02:36:00;;;;;;;2.42;1.38;;;14.80;56.70;;;;;;5093021;28;20012;-61
2020/12/12 02:38:25;;;;;;;1.50;1.40;;;14.80;56.80;;;;;;5093074;28;20063;-61
2020/12/12 02:40:51;;;;;;;1.42;1.10;;;14.80;56.80;;;;;;5092990;28;20016;-61
2020/12/12 02:43:17;;;;;;;1.77;1.30;;;14.80;56.80;;;;;;5093179;28;20024;-61
2020/12/12 02:45:46;;;;;;;1.30;1.20;;;14.80;56.90;;;;;;5093217;28;20165;-61
2020/12/12 02:48:12;;;;;;;1.42;0.95;;;14.70;56.80;;;;;;5092496;28;20032;-61
2020/12/12 02:50:38;;;;;;;1.33;1.20;;;14.70;56.80;;;;;;5092916;28;20108;-61
2020/12/12 02:53:04;;;;;;;1.38;1.27;;;14.80;56.90;;;;;;5092577;28;20382;-61
2020/12/12 02:55:29;;;;;;;2.08;1.45;;;14.80;56.80;;;;;;5092819;28;20028;-61
2020/12/12 02:57:58;;;;;;;1.10;1.00;;;14.70;56.80;;;;;;5092828;28;20047;-61
2020/12/12 03:00:25;;;;;;;1.13;1.08;;;14.70;56.80;;;;;;5092791;28;20028;-61
2020/12/12 03:02:51;;;;;;;2.58;1.52;;;14.70;56.80;;;;;;5092813;28;20028;-61
2020/12/12 03:05:17;;;;;;;1.70;1.10;;;14.70;56.90;;;;;;5092805;28;20020;-61
2020/12/12 03:07:43;;;;;;;1.30;1.20;;;14.70;56.90;;;;;;5092660;28;20035;-61
2020/12/12 03:10:09;;;;;;;1.35;1.10;;;14.70;57.60;;;;;;5092660;28;20416;-62
2020/12/12 03:12:35;;;;;;;1.20;1.10;;;14.70;57.60;;;;;;5092497;28;20036;-61
2020/12/12 03:15:03;;;;;;;3.35;1.38;;;14.70;56.90;;;;;;5092704;28;20031;-61
2020/12/12 03:17:29;;;;;;;1.40;1.30;;;14.70;57.00;;;;;;5093023;28;20024;-62
2020/12/12 03:19:54;;;;;;;2.15;1.60;;;14.70;57.00;;;;;;5078281;28;20109;-62
2020/12/12 03:22:20;;;;;;;1.80;1.50;;;14.60;57.10;;;;;;5078299;28;20028;-61
2020/12/12 03:24:46;;;;;;;1.45;1.35;;;14.60;57.00;;;;;;5096737;28;20477;-61
2020/12/12 03:27:12;;;;;;;1.27;1.15;;;14.60;57.00;;;;;;5096519;28;20103;-62
2020/12/12 03:29:44;;;;;;;1.45;1.35;;;14.60;57.10;;;;;;5096581;28;20442;-62
2020/12/12 03:32:11;;;;;;;1.70;1.30;;;14.60;57.10;;;;;;5096233;28;20025;-61
2020/12/12 03:34:38;;;;;;;1.60;1.50;;;14.60;57.10;;;;;;5096413;28;20024;-61
2020/12/12 03:37:05;;;;;;;3.25;1.50;;;14.60;57.20;;;;;;5096152;28;20107;-61
2020/12/12 03:39:30;;;;;;;1.10;1.00;;;14.60;57.10;;;;;;5096282;28;20355;-61
2020/12/12 03:41:56;;;;;;;1.63;1.52;;;14.60;57.20;;;;;;5096261;28;20031;-61
2020/12/12 03:44:22;;;;;;;1.60;1.50;;;14.50;57.10;;;;;;5096487;27;20056;-61
2020/12/12 03:46:47;;;;;;;1.50;1.40;;;14.60;57.20;;;;;;5096064;28;20527;-61
2020/12/12 03:49:13;;;;;;;2.03;1.38;;;14.60;57.20;;;;;;5095871;28;20534;-61
2020/12/12 03:51:38;;;;;;;2.00;1.40;;;14.50;57.20;;;;;;5096144;28;20017;-61
2020/12/12 03:54:04;;;;;;;1.70;1.60;;;14.50;57.20;;;;;;5095943;28;20024;-62
2020/12/12 03:56:30;;;;;;;1.35;1.17;;;14.50;57.90;;;;;;5095682;28;20039;-61
2020/12/12 03:58:55;;;;;;;1.30;1.20;;;14.50;57.20;;;;;;5095950;28;20032;-61
2020/12/12 04:01:21;;;;;;;1.73;1.38;;;14.50;57.30;;;;;;5095943;28;20024;-60
2020/12/12 04:03:46;;;;;;;2.47;1.33;;;14.50;57.30;;;;;;5095631;28;20031;-61
2020/12/12 04:06:12;;;;;;;1.38;1.13;;;14.50;57.20;;;;;;5115775;28;20055;-61
2020/12/12 04:08:38;;;;;;;0.95;0.95;;;14.50;57.30;;;;;;5116059;28;20028;-61
2020/12/12 04:11:03;;;;;;;1.20;1.10;;;14.50;57.30;;;;;;5097415;28;20020;-61
2020/12/12 04:13:29;;;;;;;1.50;1.17;;;14.50;57.30;;;;;;5116073;28;20549;-61
2020/12/12 04:15:55;;;;;;;1.30;1.17;;;14.50;57.40;;;;;;5115978;28;20024;-61
2020/12/12 04:18:21;;;;;;;2.72;1.42;;;14.50;57.30;;;;;;5115963;28;20411;-61
2020/12/12 04:20:47;;;;;;;1.73;1.30;;;14.50;57.40;;;;;;5115644;28;20023;-61
2020/12/12 04:23:13;;;;;;;1.60;1.27;;;14.50;57.40;;;;;;5116118;28;20369;-61
2020/12/12 04:25:39;;;;;;;1.23;1.13;;;14.40;57.40;;;;;;5116093;28;20027;-61
2020/12/12 04:28:04;;;;;;;1.63;1.35;;;14.50;57.50;;;;;;5115710;28;20098;-61
2020/12/12 04:30:30;;;;;;;1.90;1.35;;;14.40;57.40;;;;;;5114574;28;20016;-61
2020/12/12 04:32:56;;;;;;;2.05;1.40;;;14.40;57.40;;;;;;5115723;28;20031;-61
2020/12/12 04:35:21;;;;;;;1.90;1.52;;;14.40;57.50;;;;;;5115294;28;20216;-61
2020/12/12 04:37:47;;;;;;;2.55;1.33;;;14.40;57.50;;;;;;5115610;28;20034;-61
2020/12/12 04:40:14;;;;;;;1.45;1.35;;;14.40;57.50;;;;;;5115261;28;20432;-60
2020/12/12 04:42:42;;;;;;;1.38;1.13;;;14.40;57.50;;;;;;5115496;28;20101;-61
2020/12/12 04:45:11;;;;;;;2.72;1.50;;;14.40;57.50;;;;;;5109607;27;20048;-60
2020/12/12 04:47:39;;;;;;;1.58;1.40;;;14.40;57.50;;;;;;5095003;28;20396;-61
2020/12/12 04:50:05;;;;;;;2.20;1.33;;;14.40;57.50;;;;;;5094717;28;20028;-61
2020/12/12 04:52:31;;;;;;;1.63;1.50;;;14.40;57.50;;;;;;5095244;28;20089;-61
2020/12/12 04:55:04;;;;;;;2.08;1.40;;;14.40;57.60;;;;;;5094869;28;20097;-61
2020/12/12 04:57:34;;;;;;;2.42;1.80;;;14.40;57.60;;;;;;5094868;28;20023;-61
2020/12/12 05:00:00;;;;;;;;;;;14.50;57.70;;;;;;5095343;28;20103;-61
2020/12/12 05:02:26;;;;;;;2.28;1.70;;;14.40;57.60;;;;;;5094801;28;19936;-61
2020/12/12 05:04:52;;;;;;;2.75;1.60;;;14.30;57.60;;;;;;5094392;28;20024;-61
2020/12/12 05:07:17;;;;;;;1.92;1.42;;;14.30;57.60;;;;;;5094528;28;20090;-61
2020/12/12 05:09:44;;;;;;;1.65;1.30;;;14.30;57.60;;;;;;5094553;28;20458;-61
2020/12/12 05:12:13;;;;;;;1.60;1.42;;;14.30;57.60;;;;;;5094435;28;20020;-61
2020/12/12 05:14:38;;;;;;;2.00;1.50;;;14.30;57.70;;;;;;5094451;28;20020;-61
2020/12/12 05:17:06;;;;;;;2.53;1.88;;;14.30;57.70;;;;;;5094071;28;20024;-61
2020/12/12 05:19:33;;;;;;;1.40;1.30;;;14.30;57.70;;;;;;5094017;28;20482;-61
2020/12/12 05:22:02;;;;;;;2.58;1.60;;;14.30;57.70;;;;;;5093991;28;20024;-61
2020/12/12 05:24:28;;;;;;;2.15;1.52;;;14.30;58.40;;;;;;5094300;28;20114;-61
2020/12/12 05:27:00;;;;;;;1.92;1.52;;;14.30;57.80;;;;;;5094097;28;20138;-61
2020/12/12 05:29:25;;;;;;;2.05;1.65;;;14.30;57.70;;;;;;5094517;28;20032;-61
2020/12/12 05:31:57;;;;;;;2.15;1.70;;;14.30;57.80;;;;;;5094066;28;20374;-61
2020/12/12 05:34:24;;;;;;;2.30;1.60;;;14.30;57.70;;;;;;5094059;28;20074;-61
2020/12/12 05:36:51;;;;;;;2.30;1.90;;;14.30;57.80;;;;;;5094088;28;20092;-61
2020/12/12 05:39:17;;;;;;;2.45;1.55;;;14.20;57.80;;;;;;5093906;28;20024;-61
2020/12/12 05:41:45;;;;;;;3.50;1.75;;;14.30;57.90;;;;;;5093369;28;20027;-61
2020/12/12 05:44:10;;;;;;;2.13;1.70;;;14.30;57.90;;;;;;5093582;28;20470;-61
2020/12/12 05:46:37;;;;;;;1.65;1.55;;;14.30;57.90;;;;;;5094045;27;20070;-61
2020/12/12 05:49:03;;;;;;;3.95;2.25;;;14.30;57.90;;;;;;5093879;28;20035;-61
2020/12/12 05:51:30;;;;;;;2.65;1.95;;;14.20;57.90;;;;;;5093755;28;20087;-61
2020/12/12 05:53:56;;;;;;;2.30;1.55;;;14.20;57.90;;;;;;5093684;28;20028;-61
2020/12/12 05:56:26;;;;;;;2.70;1.92;;;14.20;57.90;;;;;;5093404;28;20090;-61
2020/12/12 05:58:54;;;;;;;2.15;1.70;;;14.20;58.00;;;;;;5093610;28;20090;-61
2020/12/12 06:01:25;;;;;;;2.13;1.42;;;14.20;58.00;;;;;;5093261;28;20017;-61
2020/12/12 06:04:07;;;;;;;3.47;2.00;;;14.20;58.00;;;;;;5093278;28;20028;-61
2020/12/12 06:06:41;;;;;;;2.70;1.60;;;14.20;58.00;;;;;;5093469;28;20059;-61
2020/12/12 06:09:09;;;;;;;1.95;1.73;;;14.30;58.10;;;;;;5093131;28;20032;-61
2020/12/12 06:11:39;;;;;;;2.05;1.80;;;14.30;57.90;;;;;;5093231;28;20028;-61
2020/12/12 06:14:05;;;;;;;2.63;1.85;;;14.30;57.70;;;;;;5093356;28;20055;-61
2020/12/12 06:16:34;;;;;;;1.67;1.30;;;14.40;57.80;;;;;;5093311;28;20013;-61
2020/12/12 06:19:16;;;;;;;1.88;1.48;;;14.50;57.60;;;;;;5092873;28;20492;-61
2020/12/12 06:21:47;;;;;;;1.73;1.63;;;14.60;57.50;;;;;;5093000;28;20531;-61
2020/12/12 06:24:18;;;;;;;2.58;1.73;;;14.70;57.50;;;;;;5093183;28;20039;-61
2020/12/12 06:26:59;;;;;;;2.33;1.60;;;14.70;57.40;;;;;;5092891;28;20021;-61
2020/12/12 06:29:28;;;;;;;2.22;1.77;;;14.80;57.30;;;;;;5093161;28;20119;-61
2020/12/12 06:31:54;;;;;;;2.05;1.65;;;14.90;57.20;;;;;;5093035;28;20021;-61
2020/12/12 06:34:46;;;;;;;1.38;1.27;;;14.90;57.10;;;;;;5092971;28;20020;-61
2020/12/12 06:37:26;;;;;;;1.25;1.10;;;14.90;57.10;;;;;;5092957;28;20016;-61
2020/12/12 06:39:52;;;;;;;1.58;1.30;;;15.00;57.00;;;;;;5093000;28;20024;-61
2020/12/12 06:42:32;;;;;;;2.28;1.80;;;15.00;57.00;;;;;;5092947;28;20027;-61
2020/12/12 06:44:59;;;;;;;3.85;1.80;;;15.10;57.00;;;;;;5093805;28;20054;-62
2020/12/12 06:47:42;;;;;;;2.03;1.70;;;15.10;57.00;;;;;;5092837;28;20035;-61
2020/12/12 06:50:15;;;;;;;2.03;1.60;;;15.10;56.90;;;;;;5092951;28;20028;-61
2020/12/12 06:52:42;;;;;;;2.42;1.70;;;15.10;56.90;;;;;;5092135;28;20082;-61
2020/12/12 06:55:15;;;;;;;1.92;1.65;;;15.10;56.90;;;;;;5092861;28;20370;-61
2020/12/12 06:57:42;;;;;;;1.30;1.20;;;15.10;56.90;;;;;;5093114;28;20028;-61
2020/12/12 07:00:20;;;;;;;1.73;1.60;;;15.10;56.90;;;;;;5092748;28;20058;-61
2020/12/12 07:02:59;;;;;;;1.60;1.50;;;15.10;56.90;;;;;;5092403;28;20024;-61
2020/12/12 07:05:30;;;;;;;2.00;1.73;;;15.20;57.00;;;;;;5092496;28;20032;-61
2020/12/12 07:08:03;;;;;;;1.92;1.58;;;15.20;56.90;;;;;;5092623;28;20031;-61
2020/12/12 07:10:30;;;;;;;2.25;1.63;;;15.20;57.00;;;;;;5074317;28;20028;-60
2020/12/12 07:12:57;;;;;;;2.70;1.80;;;15.20;56.90;;;;;;5092299;28;20466;-61
2020/12/12 07:15:26;;;;;;;2.20;1.60;;;15.20;57.00;;;;;;5092573;28;20469;-61
2020/12/12 07:17:51;;;;;;;2.78;2.13;;;15.20;57.00;;;;;;5092373;28;20474;-61
2020/12/12 07:20:17;;;;;;;4.18;1.40;;;15.10;56.90;;;;;;5092486;28;20070;-60
2020/12/12 07:22:46;;;;;;;2.20;2.00;;;15.10;57.00;;;;;;5092501;28;20020;-61
2020/12/12 07:25:11;;;;;;;2.22;1.88;;;15.20;57.20;;;;;;5092236;28;20020;-61
2020/12/12 07:27:37;;;;;;;2.40;2.03;;;15.20;57.30;;;;;;5074088;28;20498;-62
2020/12/12 07:30:03;;;;;;;4.13;2.15;;;15.20;57.30;;;;;;5092484;28;20094;-63
2020/12/12 07:32:28;;;;;;;2.28;1.70;;;15.10;57.30;;;;;;5092204;28;20035;-61
2020/12/12 07:35:00;;;;;;;3.45;2.33;;;15.10;57.40;;;;;;5092369;28;20462;-61
2020/12/12 07:37:26;;;;;;;3.38;2.38;;;15.10;57.50;;;;;;5092077;28;20027;-60
2020/12/12 07:39:53;;;;;;;2.85;2.20;;;15.10;57.60;;;;;;5092388;28;20028;-60
2020/12/12 07:42:21;;;;;;;3.88;2.85;;;15.10;57.70;;;;;;5092115;28;20031;-59
2020/12/12 07:47:37;;;;;;;;;;;15.00;57.90;;;;;;5050770;28;20036;-60
2020/12/12 07:50:06;;;;;;;2.83;2.30;;;15.00;57.90;;;;;;5092230;28;19904;-60
2020/12/12 07:52:32;;;;;;;4.25;2.75;;;14.90;58.00;;;;;;5092266;28;20020;-61
2020/12/12 07:55:05;;;;;;;4.28;2.80;;;15.00;58.00;;;;;;5091918;28;20107;-61
2020/12/12 07:57:31;;;;;;;3.15;2.40;;;14.90;58.00;;;;;;5091951;28;20028;-61
2020/12/12 08:00:11;;;;;;;4.80;2.90;;;14.90;58.10;;;;;;5092078;28;20412;-61
2020/12/12 08:02:37;;;;;;;4.28;3.22;;;14.90;58.10;;;;;;5092173;28;20024;-61
2020/12/12 08:05:05;;;;;;;6.00;3.85;;;14.90;58.20;;;;;;5094761;28;20024;-61
2020/12/12 08:07:32;;;;;;;5.03;3.58;;;14.90;58.20;;;;;;5095553;28;20086;-61
2020/12/12 08:09:59;;;;;;;5.15;3.70;;;14.90;58.30;;;;;;5095343;28;20016;-62
2020/12/12 08:12:30;;;;;;;5.85;3.85;;;14.80;58.30;;;;;;5095370;28;20089;-62
2020/12/12 08:15:24;;;;;;;4.95;3.30;;;14.80;58.30;;;;;;5095290;28;20528;-61
2020/12/12 08:17:49;;;;;;;3.63;2.67;;;14.60;58.30;;;;;;5095683;28;20036;-61
2020/12/12 08:20:17;;;;;;;7.68;4.00;;;14.80;58.50;;;;;;5095362;28;20470;-61
2020/12/12 08:22:43;;;;;;;4.97;3.20;;;14.80;58.50;;;;;;5095201;28;20462;-61
2020/12/12 08:25:10;;;;;;;5.13;3.40;;;14.80;58.40;;;;;;5077007;28;20031;-60
2020/12/12 08:27:36;;;;;;;4.20;3.05;;;14.80;58.40;;;;;;5095056;28;20085;-61
2020/12/12 08:30:05;;;;;;;6.82;3.45;;;14.80;58.40;;;;;;5095116;28;20097;-62
2020/12/12 08:32:34;;;;;;;5.07;3.72;;;14.80;58.50;;;;;;5093763;28;20106;-61
2020/12/12 08:35:25;;;;;;;8.20;4.32;;;14.80;58.70;;;;;;5095319;28;20026;-63
2020/12/12 08:38:11;;;;;;;4.07;3.25;;;14.80;59.00;;;;;;5085156;28;20039;-63
2020/12/12 08:40:42;;;;;;;7.13;3.38;;;14.80;59.00;;;;;;5094764;28;20062;-63
2020/12/12 08:43:09;;;;;;;6.50;4.05;;;14.90;58.80;;;;;;5094868;28;20598;-63
2020/12/12 08:45:39;;;;;;;14.70;4.50;;;14.90;58.90;;;;;;5095851;27;20402;-61
2020/12/12 08:48:12;;;;;;;;;;;14.90;59.10;;;;;;5094755;28;20129;-62
2020/12/12 08:50:49;;;;;;;7.20;4.03;;;14.90;59.30;;;;;;5094885;28;19904;-62
2020/12/12 08:53:34;;;;;;;7.95;4.00;;;14.90;59.10;;;;;;5094520;28;20020;-62
2020/12/12 08:56:05;;;;;;;10.45;5.30;;;14.90;59.10;;;;;;5094814;28;20023;-62
2020/12/12 08:58:58;;;;;;;8.30;4.30;;;14.90;59.20;;;;;;5094847;28;20066;-62
2020/12/12 09:01:43;;;;;;;13.35;4.95;;;14.90;59.40;;;;;;5094693;28;20028;-62
2020/12/12 09:04:13;;;;;;;8.10;4.18;;;14.90;59.60;;;;;;5094281;28;20067;-62
2020/12/12 09:06:44;;;;;;;9.45;5.25;;;15.00;59.70;;;;;;5094674;28;20089;-62
2020/12/12 09:09:13;;;;;;;10.35;5.88;;;15.00;60.00;;;;;;5094252;28;20482;-63
2020/12/12 09:11:53;;;;;;;9.88;4.55;;;15.10;59.90;;;;;;5094186;28;20500;-62
2020/12/12 09:14:20;;;;;;;12.02;5.75;;;15.20;59.80;;;;;;5094240;28;20025;-63
2020/12/12 09:16:50;;;;;;;10.05;5.57;;;15.30;59.50;;;;;;5094089;28;20016;-63
2020/12/12 09:19:16;;;;;;;14.00;5.93;;;15.50;59.30;;;;;;5093956;28;20478;-63
2020/12/12 09:21:42;;;;;;;11.27;5.47;;;15.50;59.00;;;;;;5094082;28;20020;-62
2020/12/12 09:24:07;;;;;;;10.25;5.32;;;15.60;59.00;;;;;;5094028;28;20024;-61
2020/12/12 09:26:33;;;;;;;8.43;4.80;;;15.60;59.00;;;;;;5094178;28;20067;-61
2020/12/12 09:28:58;;;;;;;9.77;5.43;;;15.70;58.80;;;;;;5094166;28;20043;-63
2020/12/12 09:31:32;;;;;;;12.35;5.43;;;15.80;58.70;;;;;;5093962;28;20135;-63
2020/12/12 09:33:57;;;;;;;12.45;5.80;;;15.90;58.60;;;;;;5094031;28;20107;-60
2020/12/12 09:36:23;;;;;;;10.70;5.53;;;15.90;58.40;;;;;;5093929;28;20384;-61
2020/12/12 09:38:49;;;;;;;9.52;5.30;;;16.10;58.30;;;;;;5093683;28;20378;-63
2020/12/12 09:41:15;;;;;;;8.90;5.05;;;16.10;58.10;;;;;;5093824;28;20024;-62
2020/12/12 09:43:41;;;;;;;9.73;6.20;;;16.20;58.00;;;;;;5093965;28;20022;-62
2020/12/12 09:46:18;;;;;;;10.15;5.32;;;16.20;57.80;;;;;;5094539;27;20131;-62
2020/12/12 09:48:50;;;;;;;12.95;5.40;;;16.30;57.70;;;;;;5093338;28;20047;-61
2020/12/12 09:51:17;;;;;;;9.35;5.38;;;16.40;57.90;;;;;;5093548;28;20095;-61
2020/12/12 09:53:44;;;;;;;9.30;5.07;;;16.40;57.60;;;;;;5093640;28;20099;-60
2020/12/12 09:56:16;;;;;;;9.82;5.55;;;16.40;57.40;;;;;;5093187;28;20020;-61
2020/12/12 09:58:45;;;;;;;13.65;5.78;;;16.50;57.40;;;;;;5093415;28;20082;-61
2020/12/12 10:01:11;;;;;;;10.15;4.78;;;16.50;57.60;;;;;;5093402;28;20051;-61
2020/12/12 10:03:37;;;;;;;8.77;5.05;;;16.50;57.60;;;;;;5092281;28;20100;-62
2020/12/12 10:06:06;;;;;;;13.77;5.85;;;16.50;57.60;;;;;;5090616;28;20107;-64
2020/12/12 10:08:32;;;;;;;20.15;5.60;;;16.50;58.10;;;;;;5093118;28;20032;-62
2020/12/12 10:10:57;;;;;;;11.82;5.07;;;16.50;57.80;;;;;;5093354;28;20035;-62
2020/12/12 10:13:23;;;;;;;16.42;5.45;;;16.50;57.70;;;;;;5093309;28;20113;-62
2020/12/12 10:15:49;;;;;;;14.95;5.63;;;16.50;57.80;;;;;;5093426;28;20106;-62
2020/12/12 10:18:15;;;;;;;15.60;5.45;;;16.60;57.80;;;;;;5093367;28;20027;-63
2020/12/12 10:20:41;;;;;;;9.55;5.32;;;16.60;57.70;;;;;;5093273;28;20142;-62
2020/12/12 10:23:08;;;;;;;10.55;5.50;;;16.60;57.60;;;;;;5093226;28;20087;-62
2020/12/12 10:25:34;;;;;;;8.75;5.20;;;16.60;57.50;;;;;;5093187;28;20024;-62
2020/12/12 10:27:59;;;;;;;8.20;4.82;;;16.60;57.50;;;;;;5092167;28;20372;-61
2020/12/12 10:30:25;;;;;;;11.38;5.35;;;16.70;57.50;;;;;;5093207;28;20020;-62
2020/12/12 10:32:50;;;;;;;9.05;4.88;;;16.70;57.50;;;;;;5093073;28;20028;-62
2020/12/12 10:35:17;;;;;;;15.52;5.65;;;16.70;57.40;;;;;;5092743;28;20016;-62
2020/12/12 10:37:42;;;;;;;11.43;5.45;;;16.70;57.40;;;;;;5092633;28;20077;-61
2020/12/12 10:40:16;;;;;;;13.95;5.28;;;16.80;57.70;;;;;;5092982;28;20020;-62
2020/12/12 10:42:42;;;;;;;10.02;4.80;;;16.80;57.80;;;;;;5092678;28;20024;-60
2020/12/12 10:45:08;;;;;;;12.73;5.38;;;16.80;58.50;;;;;;5093483;27;20077;-60
2020/12/12 10:47:34;;;;;;;9.43;5.10;;;16.90;59.60;;;;;;5092439;28;20044;-60
2020/12/12 10:50:00;;;;;;;10.90;4.88;;;16.90;59.70;;;;;;5092804;28;20027;-61
2020/12/12 10:52:26;;;;;;;11.55;5.25;;;16.90;59.90;;;;;;5092861;28;20158;-60
2020/12/12 10:54:52;;;;;;;8.00;4.82;;;17.00;60.50;;;;;;5092657;28;20497;-62
2020/12/12 10:57:18;;;;;;;14.63;5.43;;;17.00;61.30;;;;;;5092653;28;20032;-61
2020/12/12 10:59:43;;;;;;;12.05;5.60;;;17.00;62.00;;;;;;5093006;28;20054;-60
2020/12/12 11:02:13;;;;;;;10.25;6.10;;;17.00;62.40;;;;;;5092424;28;20016;-59
2020/12/12 11:04:40;;;;;;;9.52;5.43;;;17.00;63.20;;;;;;5092905;28;20028;-60
2020/12/12 11:07:05;;;;;;;10.75;5.57;;;16.90;64.40;;;;;;5092317;28;20024;-60
2020/12/12 11:09:31;;;;;;;11.40;6.00;;;16.90;63.20;;;;;;5092734;28;20024;-63
2020/12/12 11:11:57;;;;;;;9.52;5.75;;;16.90;63.60;;;;;;5074304;28;20098;-63
2020/12/12 11:14:24;;;;;;;10.18;5.70;;;16.90;64.50;;;;;;5092381;28;20138;-61
2020/12/12 11:16:50;;;;;;;8.30;5.32;;;16.90;64.90;;;;;;5092186;28;20024;-61
2020/12/12 11:19:16;;;;;;;10.50;5.95;;;16.90;64.10;;;;;;5092610;28;20016;-60
2020/12/12 11:21:42;;;;;;;12.10;6.55;;;16.90;65.20;;;;;;5092909;28;20044;-60
2020/12/12 11:24:08;;;;;;;10.20;6.53;;;16.70;65.10;;;;;;5092464;28;20085;-61
2020/12/12 11:26:34;;;;;;;11.30;6.50;;;16.80;65.60;;;;;;5092174;28;20119;-60
2020/12/12 11:28:59;;;;;;;14.13;6.50;;;16.80;66.40;;;;;;5092056;28;20028;-60
2020/12/12 11:31:25;;;;;;;10.80;6.28;;;16.80;66.40;;;;;;5092428;28;20024;-60
2020/12/12 11:34:01;;;;;;;15.60;6.13;;;16.80;66.80;;;;;;5092333;28;20370;-60
2020/12/12 11:37:00;;;;;;;12.15;5.85;;;16.70;66.90;;;;;;5092261;28;20035;-60
2020/12/12 11:39:30;;;;;;;11.55;6.60;;;16.70;66.80;;;;;;5092990;28;20036;-60
2020/12/12 11:47:11;;;;;;;18.77;7.30;;;16.60;67.50;;;;;;5096502;27;20051;-60
2020/12/12 11:49:37;;;;;;;13.90;7.15;;;16.50;67.80;;;;;;5095891;28;20024;-60
2020/12/12 11:52:03;;;;;;;11.63;7.18;;;16.50;68.10;;;;;;5095683;28;20016;-60
2020/12/12 11:54:29;;;;;;;12.18;6.53;;;16.50;67.90;;;;;;5096171;28;20032;-60
2020/12/12 11:56:55;;;;;;;11.25;6.43;;;16.40;68.00;;;;;;5095916;28;20454;-60
2020/12/12 11:59:20;;;;;;;14.32;6.38;;;16.40;68.30;;;;;;5095758;28;20024;-60
2020/12/12 12:01:46;;;;;;;12.52;6.30;;;16.40;68.60;;;;;;5095575;28;20020;-59
2020/12/12 12:04:12;;;;;;;11.82;6.03;;;16.30;67.90;;;;;;5095573;28;20032;-60
2020/12/12 12:06:37;;;;;;;10.40;6.07;;;16.40;66.00;;;;;;5095782;28;20024;-59
2020/12/12 12:11:34;;;;;;;10.90;6.07;;;16.50;66.50;;;;;;5095489;28;20397;-60
2020/12/12 12:14:02;;;;;;;11.65;5.53;;;16.60;66.90;;;;;;5095619;28;20380;-60
2020/12/12 12:16:28;;;;;;;11.05;5.05;;;16.60;66.50;;;;;;5095398;28;20027;-60
2020/12/12 12:18:54;;;;;;;8.50;5.50;;;16.50;66.80;;;;;;5095677;28;20028;-60
2020/12/12 12:21:21;;;;;;;7.35;4.97;;;16.50;65.60;;;;;;5095301;28;20035;-62
2020/12/12 12:23:53;;;;;;;8.23;5.30;;;16.60;65.10;;;;;;5095458;28;20493;-61
2020/12/12 12:26:18;;;;;;;8.55;5.45;;;16.40;66.40;;;;;;5095315;28;20058;-61
2020/12/12 12:28:44;;;;;;;10.75;5.88;;;16.50;65.40;;;;;;5095120;28;20044;-60
2020/12/12 12:31:09;;;;;;;9.40;5.43;;;16.40;66.20;;;;;;5095462;28;20020;-60
2020/12/12 12:33:35;;;;;;;12.02;6.15;;;16.40;66.70;;;;;;5095013;28;20458;-60
2020/12/12 12:36:00;;;;;;;10.88;6.15;;;16.30;68.40;;;;;;5094915;28;20027;-61
2020/12/12 12:38:26;;;;;;;11.55;6.40;;;16.30;70.40;;;;;;5094663;28;20063;-60
2020/12/12 12:40:52;;;;;;;9.38;6.05;;;16.20;70.50;;;;;;5094867;28;20012;-60
2020/12/12 12:43:17;;;;;;;7.90;5.20;;;16.10;70.50;;;;;;5095084;28;20074;-60
2020/12/12 12:45:43;;;;;;;7.28;4.93;;;16.10;70.70;;;;;;5095389;27;20043;-59
2020/12/12 12:48:09;;;;;;;9.48;5.53;;;16.10;70.80;;;;;;5094923;28;20047;-59
2020/12/12 12:50:36;;;;;;;7.97;5.18;;;16.00;70.30;;;;;;5093830;28;20020;-59
2020/12/12 12:53:04;;;;;;;6.22;4.55;;;16.00;69.80;;;;;;5094913;28;20024;-59
2020/12/12 12:55:29;;;;;;;7.97;5.25;;;16.00;69.70;;;;;;5094816;28;20020;-59
2020/12/12 12:57:57;;;;;;;7.35;4.82;;;15.90;69.70;;;;;;5094636;28;20016;-60
2020/12/12 13:00:23;;;;;;;8.75;4.90;;;15.90;69.30;;;;;;5094868;28;20020;-60
2020/12/12 13:02:55;;;;;;;8.38;4.40;;;15.90;69.30;;;;;;5094434;28;20039;-59